Pittsburgh, Pennsylvania
Traffic Map
Current Weather Conditions
Pittsburgh, Pennsylvania
Overcast Light Rain
Overcast
42°
Feels Like: 37°
Wind Chill: 37° Ceiling: 1100
Heat Index: 42° Visibility: mi
Dew Point: 39° Wind: 9mph
Humidity: 89% Direction: 190° (S)
Pressure: 29.71in Gusts: 0mph
Raw Report DataKAGC 032352Z 19008KT R28/3500V5000FT -RA SCT003 OVC011 06/04 A2971 RMK AO2 SLP078 P0011 60041 I6000 T00560039 10056 20011 55005 $
Traffic Incident Summary
Active as of:
Severity:
Category:
InformationThere was an issue retrieving the traffic information for this location. Please try a different location or try again shortly.
Advertisements
Track Severe Weather on mobile